createdAt,value
2022-10-19T00:05:21.224Z,12.40
2022-10-19T00:07:54.659Z,12.43
2022-10-19T00:10:26.821Z,12.34
2022-10-19T00:12:59.110Z,12.45
2022-10-19T00:15:31.178Z,12.43
2022-10-19T00:18:03.034Z,12.51
2022-10-19T00:20:34.829Z,12.40
2022-10-19T00:23:06.840Z,12.52
2022-10-19T00:25:38.860Z,12.55
2022-10-19T00:31:02.793Z,12.61
2022-10-19T00:33:34.748Z,12.51
2022-10-19T00:36:07.764Z,12.41
2022-10-19T00:38:39.588Z,12.41
2022-10-19T00:41:11.889Z,12.41
2022-10-19T00:44:01.513Z,12.32
2022-10-19T00:46:36.118Z,12.36
2022-10-19T00:49:11.066Z,12.36
2022-10-19T00:51:46.218Z,12.32
2022-10-19T00:54:18.758Z,12.29
2022-10-19T00:56:54.301Z,12.28
2022-10-19T00:59:28.285Z,12.24
2022-10-19T01:02:01.854Z,12.26
2022-10-19T01:04:37.454Z,12.28
2022-10-19T01:07:09.567Z,12.15
2022-10-19T01:09:41.661Z,12.05
2022-10-19T01:12:24.299Z,12.06
2022-10-19T01:15:11.819Z,12.07
2022-10-19T01:17:59.144Z,12.02
2022-10-19T01:21:04.169Z,12.08
2022-10-19T01:24:09.262Z,12.05
2022-10-19T01:27:08.711Z,12.00
2022-10-19T01:29:59.930Z,12.00
2022-10-19T01:32:40.183Z,11.95
2022-10-19T01:35:22.792Z,12.02
2022-10-19T01:38:03.303Z,12.05
2022-10-19T01:40:44.319Z,12.04
2022-10-19T01:43:26.257Z,12.05
2022-10-19T01:46:05.706Z,12.07
2022-10-19T01:48:41.194Z,12.09
2022-10-19T01:51:18.000Z,12.07
2022-10-19T01:53:54.062Z,12.07
2022-10-19T01:56:29.026Z,12.14
2022-10-19T01:59:06.255Z,12.19
2022-10-19T02:01:42.019Z,12.09
2022-10-19T02:04:16.746Z,12.05
2022-10-19T02:06:48.889Z,12.20
2022-10-19T02:09:20.630Z,12.32
2022-10-19T02:11:57.663Z,12.36
2022-10-19T02:14:34.047Z,12.30
2022-10-19T02:17:10.341Z,12.16
2022-10-19T02:19:42.335Z,12.08
2022-10-19T02:22:14.874Z,12.20
2022-10-19T02:24:46.549Z,12.17
2022-10-19T02:27:19.106Z,12.08
2022-10-19T02:29:50.829Z,12.13
2022-10-19T02:32:22.935Z,12.13
2022-10-19T02:34:55.587Z,12.17
2022-10-19T02:37:27.841Z,12.03
2022-10-19T02:40:00.741Z,12.01
2022-10-19T02:42:39.720Z,11.97
2022-10-19T02:45:15.456Z,12.00
2022-10-19T02:47:52.678Z,11.96
2022-10-19T02:50:25.267Z,12.08
2022-10-19T02:52:59.130Z,11.93
2022-10-19T02:55:31.887Z,11.97
2022-10-19T02:58:01.978Z,11.93
2022-10-19T03:00:33.715Z,11.92
2022-10-19T03:03:05.738Z,12.03
2022-10-19T03:05:37.564Z,12.00
2022-10-19T03:08:09.223Z,12.00
2022-10-19T03:10:40.847Z,12.08
2022-10-19T03:13:12.444Z,11.95
2022-10-19T03:15:43.983Z,11.95
2022-10-19T03:18:15.554Z,11.82
2022-10-19T03:20:47.201Z,11.83
2022-10-19T03:23:18.907Z,11.94
2022-10-19T03:25:50.587Z,11.87
2022-10-19T03:28:22.182Z,11.87
2022-10-19T03:30:53.774Z,11.79
2022-10-19T03:36:21.906Z,11.86
2022-10-19T03:38:55.019Z,11.96
2022-10-19T03:41:28.194Z,11.81
2022-10-19T03:46:38.651Z,11.84
2022-10-19T03:49:13.397Z,11.73
2022-10-19T03:51:45.088Z,11.74
2022-10-19T03:54:18.467Z,11.80
2022-10-19T03:56:50.076Z,11.90
2022-10-19T03:59:21.832Z,11.96
2022-10-19T04:01:53.463Z,11.89
2022-10-19T04:04:25.104Z,11.79
2022-10-19T04:06:56.938Z,11.90
2022-10-19T04:09:28.731Z,11.97
2022-10-19T04:12:00.335Z,11.91
2022-10-19T04:14:33.122Z,11.82
2022-10-19T04:17:12.028Z,11.74
2022-10-19T04:19:43.702Z,11.67
2022-10-19T04:22:17.051Z,11.73
2022-10-19T04:24:48.917Z,11.79
2022-10-19T04:27:20.919Z,11.80
2022-10-19T04:29:52.866Z,11.72
2022-10-19T04:32:24.497Z,11.73
2022-10-19T04:34:56.123Z,11.81
2022-10-19T04:37:27.874Z,11.90
2022-10-19T04:39:59.574Z,11.78
2022-10-19T04:42:31.281Z,11.80
2022-10-19T04:45:03.015Z,11.77
2022-10-19T04:47:35.007Z,11.72
2022-10-19T04:50:07.636Z,11.77
2022-10-19T04:52:39.544Z,11.71
2022-10-19T04:55:11.941Z,11.78
2022-10-19T04:57:44.919Z,11.59
2022-10-19T05:00:17.825Z,11.58
2022-10-19T05:02:49.955Z,11.70
2022-10-19T05:05:21.609Z,11.56
2022-10-19T05:07:53.357Z,11.57
2022-10-19T05:10:25.641Z,11.57
2022-10-19T05:12:57.661Z,11.61
2022-10-19T05:15:29.801Z,11.65
2022-10-19T05:18:02.001Z,11.55
2022-10-19T05:20:33.790Z,11.50
2022-10-19T05:23:07.304Z,11.53
2022-10-19T05:25:39.523Z,11.50
2022-10-19T05:28:11.210Z,11.55
2022-10-19T05:30:46.732Z,11.62
2022-10-19T05:33:20.543Z,11.59
2022-10-19T05:35:52.191Z,11.63
2022-10-19T05:38:23.848Z,11.52
2022-10-19T05:40:55.645Z,11.55
2022-10-19T05:43:27.292Z,11.62
2022-10-19T05:46:03.339Z,11.71
2022-10-19T05:48:35.925Z,11.71
2022-10-19T05:51:09.654Z,11.64
2022-10-19T05:53:41.578Z,11.57
2022-10-19T05:56:17.750Z,11.54
2022-10-19T05:58:50.436Z,11.52
2022-10-19T06:01:23.437Z,11.54
2022-10-19T06:03:56.632Z,11.55
2022-10-19T06:06:29.502Z,11.58
2022-10-19T06:09:02.075Z,11.56
2022-10-19T06:11:36.068Z,11.56
2022-10-19T06:14:10.144Z,11.60
2022-10-19T06:16:43.105Z,11.47
2022-10-19T06:19:14.797Z,11.57
2022-10-19T06:21:47.028Z,11.60
2022-10-19T06:24:18.731Z,11.64
2022-10-19T06:26:50.673Z,11.48
2022-10-19T06:29:22.345Z,11.54
2022-10-19T06:31:56.107Z,11.47
2022-10-19T06:34:30.120Z,11.41
2022-10-19T06:37:02.057Z,11.51
2022-10-19T06:39:33.843Z,11.54
2022-10-19T06:42:05.601Z,11.55
2022-10-19T06:44:37.371Z,11.68
2022-10-19T06:47:08.948Z,11.64
2022-10-19T06:49:40.861Z,11.60
2022-10-19T06:52:12.646Z,11.55
2022-10-19T06:54:44.664Z,11.53
2022-10-19T06:57:16.536Z,11.52
2022-10-19T06:59:51.363Z,11.55
2022-10-19T07:02:25.552Z,11.52
2022-10-19T07:04:57.564Z,11.51
2022-10-19T07:07:29.330Z,11.52
2022-10-19T07:10:01.227Z,11.47
2022-10-19T07:12:33.229Z,11.44
2022-10-19T07:15:05.225Z,11.45
2022-10-19T07:17:37.153Z,11.48
2022-10-19T07:20:11.773Z,11.52
2022-10-19T07:22:43.495Z,11.54
2022-10-19T07:25:15.250Z,11.56
2022-10-19T07:27:47.113Z,11.58
2022-10-19T07:30:20.646Z,11.56
2022-10-19T07:32:52.397Z,11.59
2022-10-19T07:35:24.178Z,11.65
2022-10-19T07:37:55.988Z,11.49
2022-10-19T07:40:27.668Z,11.57
2022-10-19T07:42:59.324Z,11.56
2022-10-19T07:45:31.277Z,11.66
2022-10-19T07:48:03.188Z,11.53
2022-10-19T07:50:35.226Z,11.57
2022-10-19T07:53:07.208Z,11.56
2022-10-19T07:55:39.124Z,11.58
2022-10-19T07:58:10.767Z,11.61
2022-10-19T08:00:42.838Z,11.64
2022-10-19T08:06:09.937Z,11.70
2022-10-19T08:08:42.523Z,11.92
2022-10-19T08:11:16.672Z,11.82
2022-10-19T08:13:48.863Z,11.82
2022-10-19T08:16:28.929Z,11.92
2022-10-19T08:19:02.736Z,11.97
2022-10-19T08:21:35.255Z,11.98
2022-10-19T08:24:08.288Z,11.99
2022-10-19T08:26:40.141Z,11.98
2022-10-19T08:29:15.506Z,12.01
2022-10-19T08:31:49.180Z,12.04
2022-10-19T08:34:21.225Z,12.14
2022-10-19T08:36:52.950Z,12.27
2022-10-19T08:39:25.637Z,12.16
2022-10-19T08:42:00.474Z,11.95
2022-10-19T08:45:03.640Z,11.97
2022-10-19T08:47:43.148Z,12.04
2022-10-19T08:50:22.519Z,12.09
2022-10-19T08:53:02.442Z,12.09
2022-10-19T08:55:45.687Z,12.09
2022-10-19T08:58:34.349Z,12.03
2022-10-19T09:01:14.611Z,12.13
2022-10-19T09:03:55.395Z,12.14
2022-10-19T09:06:34.372Z,12.14
2022-10-19T09:09:06.510Z,12.12
2022-10-19T09:11:45.369Z,12.11
2022-10-19T09:14:22.971Z,12.27
2022-10-19T09:16:55.681Z,12.22
2022-10-19T09:19:30.157Z,12.20
2022-10-19T09:22:06.673Z,12.31
2022-10-19T09:24:44.879Z,12.43
2022-10-19T09:27:22.763Z,12.53
2022-10-19T09:29:58.442Z,12.53
2022-10-19T09:32:34.762Z,12.55
2022-10-19T09:35:17.735Z,12.70
2022-10-19T09:37:51.471Z,12.86
2022-10-19T09:40:26.495Z,13.03
2022-10-19T09:43:02.930Z,13.09
2022-10-19T09:45:45.659Z,13.26
2022-10-19T09:48:27.663Z,13.06
2022-10-19T09:51:03.368Z,13.04
2022-10-19T09:53:35.709Z,12.97
2022-10-19T09:56:09.655Z,12.92
2022-10-19T09:58:50.919Z,12.87
2022-10-19T10:01:41.653Z,12.94
2022-10-19T10:04:19.413Z,12.90
2022-10-19T10:06:51.188Z,12.86
2022-10-19T10:09:27.323Z,12.91
2022-10-19T10:12:01.394Z,12.87
2022-10-19T10:14:39.664Z,12.89
2022-10-19T10:17:18.911Z,12.66
2022-10-19T10:20:07.055Z,12.65
2022-10-19T10:22:39.456Z,12.72
2022-10-19T10:25:19.866Z,12.78
2022-10-19T10:27:59.930Z,12.82
2022-10-19T10:30:37.832Z,12.78
2022-10-19T10:33:33.315Z,12.50
2022-10-19T10:36:12.415Z,12.10
2022-10-19T10:38:47.150Z,11.85
2022-10-19T10:41:23.190Z,11.94
2022-10-19T10:44:04.562Z,11.85
2022-10-19T10:46:42.837Z,11.87
2022-10-19T10:49:24.223Z,11.87
2022-10-19T10:52:00.892Z,11.89
2022-10-19T10:54:33.520Z,11.80
2022-10-19T10:57:16.706Z,11.83
2022-10-19T10:59:55.364Z,11.84
2022-10-19T11:02:35.995Z,11.81
2022-10-19T11:05:12.897Z,11.80
2022-10-19T11:07:47.484Z,11.85
2022-10-19T11:10:27.779Z,11.85
2022-10-19T11:13:07.736Z,11.87
2022-10-19T11:15:47.337Z,11.85
2022-10-19T11:18:22.670Z,11.94
2022-10-19T11:21:05.543Z,12.00
2022-10-19T11:23:55.031Z,12.09
2022-10-19T11:26:43.060Z,12.28
2022-10-19T11:29:28.899Z,12.72
2022-10-19T11:32:01.584Z,13.14
2022-10-19T11:34:56.136Z,13.11
2022-10-19T11:37:35.203Z,13.10
2022-10-19T11:40:22.163Z,13.21
2022-10-19T11:43:05.000Z,13.31
2022-10-19T11:45:49.376Z,13.20
2022-10-19T11:48:43.048Z,13.37
2022-10-19T11:51:23.637Z,13.63
2022-10-19T11:54:13.739Z,13.76
2022-10-19T11:57:11.433Z,13.86
2022-10-19T12:00:15.471Z,14.20
2022-10-19T12:03:20.235Z,14.10
2022-10-19T12:06:08.268Z,14.18
2022-10-19T12:08:58.705Z,14.26
2022-10-19T12:11:48.208Z,13.83
2022-10-19T12:14:24.541Z,13.70
2022-10-19T12:16:59.812Z,13.57
2022-10-19T12:19:33.975Z,13.50
2022-10-19T12:22:08.428Z,13.45
2022-10-19T12:24:40.164Z,13.36
2022-10-19T12:27:17.361Z,13.34
2022-10-19T12:29:51.622Z,13.36
2022-10-19T12:32:26.094Z,13.34
2022-10-19T12:35:03.358Z,13.25
2022-10-19T12:37:43.076Z,13.32
2022-10-19T12:40:26.560Z,13.35
2022-10-19T12:43:09.315Z,13.47
2022-10-19T12:45:46.153Z,13.45
2022-10-19T12:48:23.128Z,13.39
2022-10-19T12:51:13.557Z,13.67
2022-10-19T12:53:49.429Z,13.67
2022-10-19T12:56:25.671Z,13.74
2022-10-19T12:59:01.649Z,13.80
2022-10-19T13:01:45.386Z,13.72
2022-10-19T13:04:20.552Z,13.68
2022-10-19T13:07:01.622Z,13.58
2022-10-19T13:09:36.389Z,13.58
2022-10-19T13:12:44.837Z,13.90
2022-10-19T13:15:43.633Z,14.00
2022-10-19T13:18:17.893Z,14.28
2022-10-19T13:20:54.827Z,14.38
2022-10-19T13:23:42.837Z,14.48
2022-10-19T13:26:35.645Z,14.15
2022-10-19T13:29:28.812Z,13.98
2022-10-19T13:32:38.563Z,14.13
2022-10-19T13:35:35.283Z,14.22
2022-10-19T13:38:33.492Z,14.30
2022-10-19T13:41:10.074Z,14.34
2022-10-19T13:43:52.331Z,14.37
2022-10-19T13:46:35.781Z,14.25
2022-10-19T13:49:33.019Z,14.25
2022-10-19T13:52:22.589Z,14.05
2022-10-19T13:55:19.865Z,13.85
2022-10-19T13:58:04.124Z,13.81
2022-10-19T14:00:51.079Z,13.84
2022-10-19T14:03:41.841Z,14.00
2022-10-19T14:06:28.367Z,14.11
2022-10-19T14:09:20.850Z,14.10
2022-10-19T14:11:55.556Z,14.07
2022-10-19T14:14:29.376Z,13.93
2022-10-19T14:17:04.405Z,13.81
2022-10-19T14:19:45.098Z,13.65
2022-10-19T14:22:27.521Z,13.53
2022-10-19T14:25:19.297Z,13.64
2022-10-19T14:28:02.248Z,13.64
2022-10-19T14:30:36.262Z,13.56
2022-10-19T14:33:17.808Z,13.53
2022-10-19T14:35:52.348Z,13.38
2022-10-19T14:38:29.505Z,13.43
2022-10-19T14:41:01.263Z,13.52
2022-10-19T14:43:35.594Z,13.69
2022-10-19T14:46:12.903Z,13.58
2022-10-19T14:48:46.996Z,13.47
2022-10-19T14:54:24.617Z,13.30
2022-10-19T14:57:00.902Z,13.11
2022-10-19T14:59:36.989Z,13.03
2022-10-19T15:02:20.126Z,12.98
2022-10-19T15:04:53.936Z,12.98
2022-10-19T15:07:31.464Z,12.88
2022-10-19T15:10:06.367Z,12.72
2022-10-19T15:12:41.615Z,12.67
2022-10-19T15:15:20.725Z,12.64
2022-10-19T15:17:57.811Z,12.62
2022-10-19T15:20:43.752Z,12.58
2022-10-19T15:23:45.328Z,12.54
2022-10-19T15:26:21.647Z,12.49
2022-10-19T15:28:55.140Z,12.44
2022-10-19T15:31:30.075Z,12.43
2022-10-19T15:34:03.817Z,12.33
2022-10-19T15:36:35.720Z,12.52
2022-10-19T15:39:24.904Z,12.45
2022-10-19T15:41:57.292Z,12.27
2022-10-19T15:44:41.729Z,12.12
2022-10-19T15:47:23.561Z,11.99
2022-10-19T15:49:58.507Z,12.11
2022-10-19T15:52:33.050Z,12.22
2022-10-19T15:55:04.866Z,12.20
2022-10-19T15:57:38.953Z,12.27
2022-10-19T16:00:16.210Z,12.10
2022-10-19T16:02:47.921Z,12.11
2022-10-19T16:05:19.813Z,12.08
2022-10-19T16:07:52.811Z,12.01
2022-10-19T16:10:27.537Z,12.04
2022-10-19T16:12:59.150Z,12.00
2022-10-19T16:15:30.844Z,12.01
2022-10-19T16:18:03.844Z,11.81
2022-10-19T16:20:36.371Z,11.74
2022-10-19T16:23:08.137Z,11.62
2022-10-19T16:25:39.846Z,11.56
2022-10-19T16:28:11.528Z,11.51
2022-10-19T16:30:43.252Z,11.30
2022-10-19T16:33:14.934Z,11.09
2022-10-19T16:35:46.812Z,11.10
2022-10-19T16:38:18.566Z,11.02
2022-10-19T16:40:50.188Z,10.97
2022-10-19T16:43:22.070Z,10.99
2022-10-19T16:45:53.616Z,10.88
2022-10-19T16:48:25.677Z,10.84
2022-10-19T16:51:28.330Z,10.80
2022-10-19T16:54:00.941Z,10.88
2022-10-19T16:56:33.698Z,10.86
2022-10-19T16:59:05.317Z,10.73
2022-10-19T17:01:37.570Z,10.64
2022-10-19T17:04:09.276Z,10.88
2022-10-19T17:06:41.787Z,10.85
2022-10-19T17:09:40.329Z,10.66
2022-10-19T17:12:05.990Z,10.70
2022-10-19T17:14:39.430Z,10.67
2022-10-19T17:17:12.113Z,10.69
2022-10-19T17:19:43.733Z,10.51
2022-10-19T17:22:15.327Z,10.37
2022-10-19T17:24:47.407Z,10.26
2022-10-19T17:27:19.121Z,10.21
2022-10-19T17:29:51.140Z,10.25
2022-10-19T17:32:22.915Z,10.24
2022-10-19T17:34:56.224Z,10.14
2022-10-19T17:37:28.742Z,10.15
2022-10-19T17:40:00.624Z,10.41
2022-10-19T17:42:36.502Z,10.41
2022-10-19T17:45:10.117Z,10.52
2022-10-19T17:47:42.100Z,10.47
2022-10-19T17:50:13.882Z,10.50
2022-10-19T17:52:45.668Z,10.53
2022-10-19T17:55:17.683Z,10.52
2022-10-19T17:57:51.384Z,10.59
2022-10-19T18:00:24.377Z,10.41
2022-10-19T18:02:56.735Z,10.24
2022-10-19T18:05:31.154Z,10.23
2022-10-19T18:08:05.924Z,10.34
2022-10-19T18:10:39.563Z,10.09
2022-10-19T18:13:11.326Z,9.95
2022-10-19T18:15:43.060Z,9.99
2022-10-19T18:18:14.812Z,9.92
2022-10-19T18:20:46.576Z,9.76
2022-10-19T18:23:18.973Z,9.60
2022-10-19T18:25:54.418Z,9.46
2022-10-19T18:28:26.754Z,9.30
2022-10-19T18:31:05.144Z,9.29
2022-10-19T18:33:37.606Z,9.21
2022-10-19T18:36:11.491Z,9.23
2022-10-19T18:38:44.492Z,9.21
2022-10-19T18:41:16.484Z,9.16
2022-10-19T18:43:53.387Z,9.13
2022-10-19T18:46:27.389Z,9.33
2022-10-19T18:49:00.427Z,9.49
2022-10-19T18:51:32.961Z,9.31
2022-10-19T18:54:05.310Z,9.36
2022-10-19T18:56:37.860Z,9.38
2022-10-19T18:59:08.242Z,9.29
2022-10-19T19:01:41.544Z,9.24
2022-10-19T19:04:13.418Z,9.19
2022-10-19T19:06:45.267Z,9.06
2022-10-19T19:09:17.513Z,9.10
2022-10-19T19:11:48.271Z,9.18
2022-10-19T19:14:21.920Z,9.24
2022-10-19T19:16:53.582Z,8.98
2022-10-19T19:19:27.454Z,8.96
2022-10-19T19:22:05.127Z,8.87
2022-10-19T19:24:39.874Z,8.85
2022-10-19T19:27:12.667Z,8.95
2022-10-19T19:29:44.634Z,8.92
2022-10-19T19:32:16.818Z,8.92
2022-10-19T19:34:53.795Z,9.07
2022-10-19T19:37:26.721Z,9.12
2022-10-19T19:39:58.834Z,9.14
2022-10-19T19:42:30.468Z,9.07
2022-10-19T19:45:02.399Z,8.99
2022-10-19T19:47:34.634Z,8.90
2022-10-19T19:50:07.490Z,9.00
2022-10-19T19:52:44.902Z,9.08
2022-10-19T19:55:18.506Z,9.10
2022-10-19T19:57:54.134Z,8.96
2022-10-19T20:00:26.926Z,8.93
2022-10-19T20:03:00.222Z,8.94
2022-10-19T20:05:33.676Z,8.94
2022-10-19T20:08:05.461Z,8.83
2022-10-19T20:10:40.490Z,8.89
2022-10-19T20:13:12.125Z,8.76
2022-10-19T20:15:43.714Z,8.77
2022-10-19T20:18:16.054Z,8.79
2022-10-19T20:20:47.839Z,8.82
2022-10-19T20:23:19.551Z,8.63
2022-10-19T20:25:53.528Z,8.42
2022-10-19T20:28:26.045Z,8.18
2022-10-19T20:31:06.815Z,8.04
2022-10-19T20:33:40.285Z,7.93
2022-10-19T20:36:15.385Z,7.89
2022-10-19T20:38:50.375Z,7.88
2022-10-19T20:41:23.449Z,7.92
2022-10-19T20:43:55.887Z,7.81
2022-10-19T20:46:29.709Z,7.73
2022-10-19T20:49:02.786Z,7.79
2022-10-19T20:51:36.835Z,7.97
2022-10-19T20:54:13.170Z,7.96
2022-10-19T20:56:44.949Z,7.82
2022-10-19T20:59:18.555Z,7.88
2022-10-19T21:01:52.487Z,7.83
2022-10-19T21:04:25.640Z,7.99
2022-10-19T21:06:57.289Z,8.08
2022-10-19T21:09:28.910Z,8.13
2022-10-19T21:12:02.375Z,8.19
2022-10-19T21:14:34.398Z,8.21
2022-10-19T21:17:06.219Z,8.19
2022-10-19T21:19:38.091Z,8.12
2022-10-19T21:22:14.033Z,7.96
2022-10-19T21:24:45.661Z,7.83
2022-10-19T21:27:17.294Z,7.65
2022-10-19T21:29:48.942Z,7.86
2022-10-19T21:32:21.470Z,7.82
2022-10-19T21:34:53.122Z,7.68
2022-10-19T21:37:24.796Z,7.69
2022-10-19T21:39:56.387Z,7.58
2022-10-19T21:42:28.068Z,7.43
2022-10-19T21:45:25.286Z,7.48
2022-10-19T21:47:52.723Z,7.59
2022-10-19T21:50:24.435Z,7.55
2022-10-19T21:52:56.089Z,7.55
2022-10-19T21:55:29.661Z,7.55
2022-10-19T21:58:02.789Z,7.58
2022-10-19T22:00:34.426Z,7.54
2022-10-19T22:03:06.010Z,7.26
2022-10-19T22:05:37.653Z,7.17
2022-10-19T22:08:09.447Z,7.11
2022-10-19T22:10:41.361Z,7.15
2022-10-19T22:13:13.053Z,7.09
2022-10-19T22:15:45.764Z,7.14
2022-10-19T22:18:17.459Z,7.21
2022-10-19T22:20:49.108Z,7.23
2022-10-19T22:23:21.179Z,7.20
2022-10-19T22:25:52.841Z,7.07
2022-10-19T22:28:25.218Z,6.98
2022-10-19T22:30:59.530Z,6.80
2022-10-19T22:33:31.197Z,6.81
2022-10-19T22:36:05.491Z,7.00
2022-10-19T22:38:37.505Z,6.96
2022-10-19T22:41:09.384Z,6.82
2022-10-19T22:43:41.066Z,6.60
2022-10-19T22:46:12.807Z,6.48
2022-10-19T22:48:44.523Z,6.48
2022-10-19T22:51:16.555Z,6.49
2022-10-19T22:53:48.110Z,6.32
2022-10-19T22:56:19.730Z,6.04
2022-10-19T22:58:51.332Z,6.03
2022-10-19T23:01:22.997Z,5.87
2022-10-19T23:03:54.837Z,5.80
2022-10-19T23:06:26.784Z,6.01
2022-10-19T23:08:58.936Z,6.23
2022-10-19T23:11:31.394Z,6.29
2022-10-19T23:14:03.044Z,6.38
2022-10-19T23:16:34.800Z,6.15
2022-10-19T23:19:06.422Z,5.92
2022-10-19T23:21:38.141Z,5.75
2022-10-19T23:24:09.930Z,5.74
2022-10-19T23:26:41.528Z,5.77
2022-10-19T23:29:13.204Z,5.91
2022-10-19T23:31:45.823Z,5.75
2022-10-19T23:34:17.472Z,5.62
2022-10-19T23:36:49.100Z,5.62
2022-10-19T23:39:20.926Z,5.77
2022-10-19T23:41:52.751Z,5.93
2022-10-19T23:44:24.362Z,5.98
2022-10-19T23:46:55.914Z,5.73
2022-10-19T23:49:27.607Z,5.36
2022-10-19T23:51:59.388Z,5.41
2022-10-19T23:54:30.997Z,5.55
2022-10-19T23:57:02.592Z,5.71
2022-10-19T23:59:34.536Z,5.68
